Time;durP1;ratioP1;P1;durP2;ratioP2;P2;SDS_P1;SDS_P2;PMS_P1;PMS_P2;Temp;Humidity;BMP_temperature;BMP_pressure;BME280_temperature;BME280_humidity;BME280_pressure;Samples;Min_cycle;Max_cycle;Signal;HPM_P1;HPM_P2
2021/01/27 00:00:35;;;;;;;3.30;2.07;;;0.50;99.90;;;;;;5030483;28;20539;-77
2021/01/27 00:03:02;;;;;;;3.00;2.00;;;0.40;99.90;;;;;;5030969;28;20194;-77
2021/01/27 00:05:40;;;;;;;2.80;2.30;;;0.40;99.90;;;;;;5029860;28;20876;-77
2021/01/27 00:08:06;;;;;;;3.63;1.97;;;0.40;99.90;;;;;;5027345;28;20480;-77
2021/01/27 00:10:33;;;;;;;2.60;2.20;;;0.40;99.90;;;;;;5059056;28;20413;-76
2021/01/27 00:12:59;;;;;;;3.10;2.90;;;0.40;99.90;;;;;;5062879;28;20781;-76
2021/01/27 00:15:28;;;;;;;2.67;2.33;;;0.50;99.90;;;;;;5031428;28;20458;-77
2021/01/27 00:17:54;;;;;;;2.90;2.17;;;0.50;99.90;;;;;;5031514;28;20469;-77
2021/01/27 00:20:23;;;;;;;2.90;2.13;;;0.50;99.90;;;;;;5031028;28;20395;-78
2021/01/27 00:22:48;;;;;;;2.23;1.73;;;0.60;99.90;;;;;;5029676;28;20589;-77
2021/01/27 00:25:17;;;;;;;2.30;2.10;;;0.70;99.90;;;;;;5030861;28;20432;-76
2021/01/27 00:27:42;;;;;;;3.17;2.20;;;0.70;99.90;;;;;;5030402;28;20207;-77
2021/01/27 00:30:13;;;;;;;3.33;2.30;;;0.70;99.90;;;;;;5030066;28;20403;-77
2021/01/27 00:32:39;;;;;;;8.73;2.30;;;0.80;99.90;;;;;;5029081;28;20731;-77
2021/01/27 00:35:06;;;;;;;4.20;2.27;;;0.80;99.90;;;;;;5030681;28;20395;-77
2021/01/27 00:37:31;;;;;;;4.10;2.03;;;0.90;99.90;;;;;;5059968;28;20557;-77
2021/01/27 00:39:57;;;;;;;3.80;1.97;;;0.90;99.90;;;;;;5030532;28;20425;-76
2021/01/27 00:42:23;;;;;;;2.20;2.00;;;0.90;99.90;;;;;;5029498;28;20610;-77
2021/01/27 00:44:48;;;;;;;4.00;2.97;;;0.90;99.90;;;;;;5029850;28;20185;-77
2021/01/27 00:47:14;;;;;;;4.07;2.63;;;0.90;99.90;;;;;;5030628;28;20270;-77
2021/01/27 00:49:40;;;;;;;2.57;2.33;;;0.90;99.90;;;;;;5029640;28;20612;-77
2021/01/27 00:52:05;;;;;;;3.23;2.23;;;0.90;99.90;;;;;;5030524;28;20182;-76
2021/01/27 00:54:31;;;;;;;4.67;2.23;;;0.90;99.90;;;;;;5030946;28;20178;-77
2021/01/27 00:56:56;;;;;;;1.80;1.70;;;0.80;99.90;;;;;;5030374;28;20291;-76
2021/01/27 00:59:22;;;;;;;3.10;2.40;;;0.80;99.90;;;;;;5030722;28;20559;-76
2021/01/27 01:01:47;;;;;;;5.03;2.67;;;0.90;99.90;;;;;;5030385;28;20196;-76
2021/01/27 01:04:13;;;;;;;3.77;1.80;;;1.00;99.90;;;;;;5030525;28;20639;-76
2021/01/27 01:06:38;;;;;;;1.83;1.73;;;1.00;99.90;;;;;;5030544;28;20297;-77
2021/01/27 01:09:04;;;;;;;8.53;2.50;;;1.00;99.90;;;;;;5030386;28;20235;-77
2021/01/27 01:11:29;;;;;;;3.63;2.30;;;1.00;99.90;;;;;;5029177;28;20217;-76
2021/01/27 01:13:55;;;;;;;2.73;2.53;;;1.00;99.90;;;;;;5030240;28;20180;-76
2021/01/27 01:16:20;;;;;;;4.27;3.13;;;1.10;99.90;;;;;;5030509;28;20250;-76
2021/01/27 01:18:46;;;;;;;3.20;3.00;;;1.00;99.90;;;;;;5030287;28;20286;-77
2021/01/27 01:21:11;;;;;;;2.83;2.50;;;1.10;99.90;;;;;;5029006;28;20184;-76
2021/01/27 01:23:37;;;;;;;3.60;2.90;;;1.10;99.90;;;;;;5030293;28;20190;-76
2021/01/27 01:26:03;;;;;;;6.67;4.03;;;1.00;99.90;;;;;;5030175;28;20232;-76
2021/01/27 01:28:28;;;;;;;4.80;3.93;;;1.10;99.90;;;;;;5030300;28;20180;-76
2021/01/27 01:30:54;;;;;;;4.90;4.00;;;1.10;99.90;;;;;;5029954;28;20430;-76
2021/01/27 01:33:29;;;;;;;5.07;3.70;;;1.10;99.90;;;;;;5030223;28;20213;-76
2021/01/27 01:35:55;;;;;;;7.03;4.33;;;1.10;99.90;;;;;;5033222;28;20648;-76
2021/01/27 01:38:21;;;;;;;6.33;3.90;;;1.10;99.90;;;;;;5033703;28;20449;-76
2021/01/27 01:40:55;;;;;;;4.60;3.80;;;1.10;99.90;;;;;;5033681;28;20183;-76
2021/01/27 01:43:27;;;;;;;5.53;3.63;;;1.00;99.90;;;;;;5033462;28;20427;-76
2021/01/27 01:46:03;;;;;;;5.63;3.57;;;1.00;99.90;;;;;;5032143;28;20444;-76
2021/01/27 01:48:40;;;;;;;7.20;3.70;;;1.00;99.90;;;;;;5032251;28;20445;-76
2021/01/27 01:51:29;;;;;;;5.53;4.03;;;1.00;99.90;;;;;;5030127;28;20432;-76
2021/01/27 01:54:19;;;;;;;3.93;3.63;;;1.00;99.90;;;;;;5032346;28;20423;-76
2021/01/27 01:56:53;;;;;;;3.83;3.50;;;0.90;99.90;;;;;;5029745;28;20505;-76
2021/01/27 01:59:19;;;;;;;8.13;4.63;;;0.90;99.90;;;;;;5033255;28;20429;-77
2021/01/27 02:01:47;;;;;;;4.30;3.23;;;0.90;99.90;;;;;;5031880;28;20459;-76
2021/01/27 02:04:13;;;;;;;5.23;3.60;;;0.90;99.90;;;;;;5033053;28;20521;-77
2021/01/27 02:06:38;;;;;;;5.70;3.50;;;0.90;99.90;;;;;;5033236;28;21040;-77
2021/01/27 02:09:05;;;;;;;8.93;3.80;;;1.00;99.90;;;;;;5033033;28;20651;-76
2021/01/27 02:11:40;;;;;;;5.53;3.80;;;1.00;99.90;;;;;;5031908;28;20352;-76
2021/01/27 02:14:24;;;;;;;6.03;4.03;;;1.00;99.90;;;;;;5029448;28;20414;-76
2021/01/27 02:17:10;;;;;;;5.40;4.20;;;1.00;99.90;;;;;;5063425;28;20513;-76
2021/01/27 02:20:15;;;;;;;4.50;3.47;;;1.00;99.90;;;;;;5028329;28;20415;-76
2021/01/27 02:23:21;;;;;;;8.90;3.40;;;1.00;99.90;;;;;;5018805;28;20431;-77
2021/01/27 02:26:14;;;;;;;3.50;3.20;;;1.00;99.90;;;;;;5030654;28;20897;-77
2021/01/27 02:29:09;;;;;;;11.30;3.50;;;0.90;99.90;;;;;;5029663;28;20450;-77
2021/01/27 02:31:59;;;;;;;5.70;3.23;;;0.80;99.90;;;;;;5029208;28;20512;-77
2021/01/27 02:34:52;;;;;;;6.30;3.60;;;0.90;99.90;;;;;;5032013;28;20391;-77
2021/01/27 02:37:23;;;;;;;5.83;4.40;;;0.80;99.90;;;;;;5029181;28;20492;-77
2021/01/27 02:39:55;;;;;;;5.87;4.53;;;0.90;99.90;;;;;;5032595;28;20440;-77
2021/01/27 02:42:39;;;;;;;5.47;4.07;;;0.90;99.90;;;;;;5032460;28;20439;-77
2021/01/27 02:45:16;;;;;;;5.77;4.23;;;0.90;99.90;;;;;;5028403;28;20420;-77
2021/01/27 02:48:08;;;;;;;11.03;4.40;;;0.80;99.90;;;;;;5029505;28;20475;-77
2021/01/27 02:50:51;;;;;;;7.10;4.33;;;0.80;99.90;;;;;;5028687;28;20420;-76
2021/01/27 02:53:20;;;;;;;12.27;4.83;;;0.80;99.90;;;;;;5030263;28;20445;-77
2021/01/27 02:55:53;;;;;;;6.17;4.17;;;0.80;99.90;;;;;;5032443;28;20984;-76
2021/01/27 02:58:30;;;;;;;6.27;4.17;;;0.80;99.90;;;;;;5031063;28;20425;-76
2021/01/27 03:01:02;;;;;;;5.77;4.10;;;0.80;99.90;;;;;;5032072;28;20793;-76
2021/01/27 03:03:35;;;;;;;4.80;4.00;;;0.80;99.90;;;;;;5032258;28;20434;-77
2021/01/27 03:06:04;;;;;;;5.00;3.27;;;0.80;99.90;;;;;;5030747;28;20470;-77
2021/01/27 03:08:34;;;;;;;6.27;3.53;;;0.80;99.90;;;;;;5031951;28;20421;-77
2021/01/27 03:11:09;;;;;;;5.00;4.00;;;0.70;99.90;;;;;;5030567;28;20399;-77
2021/01/27 03:13:36;;;;;;;7.00;3.93;;;0.60;99.90;;;;;;5027029;28;20420;-77
2021/01/27 03:16:07;;;;;;;10.83;4.87;;;0.60;99.90;;;;;;5031888;28;20474;-77
2021/01/27 03:18:36;;;;;;;4.87;3.63;;;0.60;99.90;;;;;;5028089;28;20425;-77
2021/01/27 03:21:11;;;;;;;8.17;4.27;;;0.60;99.90;;;;;;5031659;28;20454;-76
2021/01/27 03:23:57;;;;;;;7.30;4.90;;;0.50;99.90;;;;;;5028375;28;20420;-77
2021/01/27 03:26:38;;;;;;;4.80;4.17;;;0.60;99.90;;;;;;5030350;28;20534;-76
2021/01/27 03:29:13;;;;;;;6.03;4.30;;;0.60;99.90;;;;;;5027693;28;20969;-76
2021/01/27 03:31:39;;;;;;;6.87;4.07;;;0.60;99.90;;;;;;5028740;28;20836;-77
2021/01/27 03:34:11;;;;;;;6.47;5.43;;;0.60;99.90;;;;;;5031431;28;21623;-76
2021/01/27 03:36:43;;;;;;;10.20;4.43;;;0.70;99.90;;;;;;5028060;28;20775;-77
2021/01/27 03:39:11;;;;;;;13.53;4.60;;;0.70;99.90;;;;;;5026900;28;20414;-76
2021/01/27 03:41:49;;;;;;;7.27;3.90;;;0.60;99.90;;;;;;5030124;28;20441;-77
2021/01/27 03:44:25;;;;;;;8.50;4.10;;;0.60;99.90;;;;;;5029018;28;20432;-77
2021/01/27 03:47:02;;;;;;;6.07;4.20;;;0.60;99.90;;;;;;5031449;28;20952;-77
2021/01/27 03:49:32;;;;;;;5.90;4.03;;;0.50;99.90;;;;;;5031511;28;20970;-77
2021/01/27 03:52:19;;;;;;;4.40;4.00;;;0.50;99.90;;;;;;5031061;28;20430;-76
2021/01/27 03:54:57;;;;;;;5.70;3.93;;;0.40;99.90;;;;;;5028921;28;20417;-77
2021/01/27 03:57:28;;;;;;;6.10;3.70;;;0.40;99.90;;;;;;5030401;28;20470;-77
2021/01/27 03:59:54;;;;;;;4.47;4.07;;;0.50;99.90;;;;;;5029945;28;20422;-77
2021/01/27 04:02:22;;;;;;;5.27;4.10;;;0.40;99.90;;;;;;5031039;28;20898;-77
2021/01/27 04:04:48;;;;;;;6.03;4.20;;;0.40;99.90;;;;;;5031071;28;20557;-77
2021/01/27 04:07:14;;;;;;;7.17;4.60;;;0.50;99.90;;;;;;5030941;28;20571;-77
2021/01/27 04:09:39;;;;;;;5.53;3.87;;;0.50;99.90;;;;;;5029664;28;20513;-76
2021/01/27 04:12:05;;;;;;;5.93;4.50;;;0.50;99.90;;;;;;5029519;28;20916;-76
2021/01/27 04:14:31;;;;;;;8.30;4.10;;;0.50;99.90;;;;;;5031133;28;20184;-76
2021/01/27 04:16:56;;;;;;;6.10;4.30;;;0.50;99.90;;;;;;5030753;28;20804;-77
2021/01/27 04:19:22;;;;;;;6.70;4.53;;;0.60;99.90;;;;;;5030994;28;20182;-77
2021/01/27 04:21:47;;;;;;;6.27;4.93;;;0.60;99.90;;;;;;5030799;28;20187;-77
2021/01/27 04:24:13;;;;;;;5.20;4.20;;;0.60;99.90;;;;;;5030878;28;20197;-77
2021/01/27 04:26:39;;;;;;;5.17;4.60;;;0.60;99.90;;;;;;5029586;28;20754;-76
2021/01/27 04:29:05;;;;;;;5.37;4.17;;;0.70;99.90;;;;;;5031052;28;20188;-77
2021/01/27 04:31:31;;;;;;;4.97;4.47;;;0.70;99.90;;;;;;5030738;28;20266;-77
2021/01/27 04:33:57;;;;;;;8.33;4.90;;;0.70;99.90;;;;;;5030861;28;20453;-76
2021/01/27 04:36:23;;;;;;;7.40;5.80;;;0.70;99.90;;;;;;5030736;28;20345;-76
2021/01/27 04:38:51;;;;;;;3.90;3.60;;;0.80;99.90;;;;;;5030662;28;20507;-77
2021/01/27 04:41:17;;;;;;;6.50;5.27;;;0.80;99.90;;;;;;5029416;28;20934;-76
2021/01/27 04:43:46;;;;;;;5.87;4.10;;;0.70;99.90;;;;;;5030863;28;20399;-77
2021/01/27 04:46:25;;;;;;;5.03;4.63;;;0.70;99.90;;;;;;5030482;28;20326;-76
2021/01/27 04:49:17;;;;;;;6.93;3.67;;;0.80;99.90;;;;;;5030633;28;20504;-77
2021/01/27 04:52:11;;;;;;;7.20;4.90;;;0.80;99.90;;;;;;5026784;28;20531;-77
2021/01/27 04:55:00;;;;;;;4.80;4.20;;;0.90;99.90;;;;;;5027419;28;20750;-77
2021/01/27 04:57:55;;;;;;;8.00;4.77;;;0.90;99.90;;;;;;5029707;28;20502;-77
2021/01/27 05:00:51;;;;;;;6.43;4.33;;;0.80;99.90;;;;;;5027544;28;20417;-77
2021/01/27 05:03:25;;;;;;;7.40;4.10;;;0.80;99.90;;;;;;5028461;28;20404;-76
2021/01/27 05:05:56;;;;;;;8.87;4.33;;;0.80;99.90;;;;;;5030376;28;20417;-77
2021/01/27 05:08:44;;;;;;;11.90;4.93;;;0.90;99.90;;;;;;5031634;28;20441;-76
2021/01/27 05:11:12;;;;;;;6.60;4.70;;;0.90;99.90;;;;;;5029574;28;20819;-76
2021/01/27 05:13:45;;;;;;;6.40;4.60;;;0.90;99.90;;;;;;5034231;28;20423;-77
2021/01/27 05:16:14;;;;;;;8.53;4.57;;;0.90;99.90;;;;;;5033835;28;20428;-77
2021/01/27 05:18:41;;;;;;;9.90;5.10;;;0.90;99.90;;;;;;5034342;28;20823;-77
2021/01/27 05:21:30;;;;;;;11.30;4.50;;;1.00;99.90;;;;;;5032830;28;20403;-77
2021/01/27 05:23:56;;;;;;;5.43;4.33;;;1.00;99.90;;;;;;5031579;28;20421;-77
2021/01/27 05:26:33;;;;;;;9.47;7.13;;;1.00;99.90;;;;;;5035710;28;20473;-76
2021/01/27 05:29:03;;;;;;;7.80;4.50;;;1.00;99.90;;;;;;5033641;28;20383;-76
2021/01/27 05:31:58;;;;;;;5.67;4.80;;;1.00;99.90;;;;;;5033911;28;20938;-76
2021/01/27 05:34:36;;;;;;;8.20;5.00;;;1.00;99.90;;;;;;5032614;28;20500;-77
2021/01/27 05:37:35;;;;;;;6.53;5.60;;;1.10;99.90;;;;;;5032145;28;20433;-76
2021/01/27 05:40:13;;;;;;;7.20;5.03;;;1.10;99.90;;;;;;5032921;28;20823;-77
2021/01/27 05:42:40;;;;;;;7.13;5.10;;;1.10;99.90;;;;;;5030374;28;20394;-76
2021/01/27 05:45:41;;;;;;;6.80;5.43;;;1.10;99.90;;;;;;5033438;28;20446;-76
2021/01/27 05:48:33;;;;;;;6.70;5.17;;;1.10;99.90;;;;;;5029644;28;20817;-76
2021/01/27 05:51:01;;;;;;;6.40;5.00;;;1.10;99.90;;;;;;5064868;28;20495;-76
2021/01/27 05:53:30;;;;;;;8.27;5.80;;;1.10;99.90;;;;;;5033466;28;20494;-77
2021/01/27 05:56:16;;;;;;;7.80;5.20;;;1.10;99.90;;;;;;5033328;28;20433;-76
2021/01/27 05:58:54;;;;;;;5.27;3.37;;;1.10;99.90;;;;;;5030473;28;20391;-77
2021/01/27 06:01:30;;;;;;;3.40;3.10;;;1.10;99.90;;;;;;5032501;28;20429;-76
2021/01/27 06:04:01;;;;;;;7.00;4.13;;;1.10;99.90;;;;;;5031211;28;20432;-77
2021/01/27 06:06:31;;;;;;;7.23;3.50;;;1.20;99.90;;;;;;5034330;28;20498;-77
2021/01/27 06:08:59;;;;;;;3.47;3.10;;;1.20;99.90;;;;;;5033658;28;20388;-78
2021/01/27 06:11:25;;;;;;;2.90;2.70;;;1.20;99.90;;;;;;5031917;28;20471;-76
2021/01/27 06:14:03;;;;;;;3.70;3.30;;;1.20;99.90;;;;;;5029155;28;20402;-76
2021/01/27 06:16:43;;;;;;;2.20;2.00;;;1.20;99.90;;;;;;5032394;28;20472;-77
2021/01/27 06:19:20;;;;;;;2.93;2.70;;;1.30;99.90;;;;;;5030724;28;20428;-76
2021/01/27 06:22:33;;;;;;;4.00;2.23;;;1.20;99.90;;;;;;5031311;28;20402;-76
2021/01/27 06:25:07;;;;;;;4.37;2.47;;;1.30;99.90;;;;;;4944475;28;20500;-76
2021/01/27 06:28:09;;;;;;;6.10;3.03;;;1.30;99.90;;;;;;5032911;28;21007;-76
2021/01/27 06:30:55;;;;;;;3.13;2.17;;;1.30;99.90;;;;;;5027809;28;20451;-77
2021/01/27 06:33:24;;;;;;;2.70;2.50;;;1.30;99.90;;;;;;5031347;28;20421;-77
2021/01/27 06:36:04;;;;;;;2.03;1.90;;;1.30;99.90;;;;;;5032632;28;20449;-76
2021/01/27 06:38:57;;;;;;;2.60;2.13;;;1.30;99.90;;;;;;5031703;28;20413;-77
2021/01/27 06:41:56;;;;;;;4.40;2.33;;;1.30;99.90;;;;;;5031320;28;20434;-77
2021/01/27 06:44:51;;;;;;;3.23;2.40;;;1.30;99.90;;;;;;5030580;28;20403;-77
2021/01/27 06:47:32;;;;;;;4.00;2.10;;;1.30;99.90;;;;;;5028581;28;20997;-79
2021/01/27 06:50:25;;;;;;;2.87;2.37;;;1.30;99.90;;;;;;5032162;28;20420;-72
2021/01/27 06:53:05;;;;;;;2.80;2.37;;;1.30;99.90;;;;;;5030485;28;20789;-74
2021/01/27 06:55:45;;;;;;;2.37;2.27;;;1.30;99.90;;;;;;5032271;28;20403;-73
2021/01/27 06:58:26;;;;;;;3.60;2.60;;;1.40;99.90;;;;;;5028833;28;20452;-73
2021/01/27 07:00:54;;;;;;;3.03;2.83;;;1.50;99.90;;;;;;5031765;28;20440;-73
2021/01/27 07:04:11;;;;;;;6.53;2.30;;;1.40;99.90;;;;;;5031755;28;20426;-73
2021/01/27 07:06:46;;;;;;;5.17;2.17;;;1.50;99.90;;;;;;5005575;28;20551;-73
2021/01/27 07:09:36;;;;;;;4.87;3.33;;;1.40;99.90;;;;;;5060559;28;20432;-73
2021/01/27 07:12:23;;;;;;;2.50;2.30;;;1.50;99.90;;;;;;5031506;28;20451;-74
2021/01/27 07:15:20;;;;;;;2.93;2.73;;;1.40;99.90;;;;;;5030592;28;20388;-73
2021/01/27 07:18:17;;;;;;;3.53;2.37;;;1.50;99.90;;;;;;5025261;28;20448;-74
2021/01/27 07:20:57;;;;;;;4.00;3.60;;;1.50;99.90;;;;;;5022944;28;20788;-73
2021/01/27 07:23:32;;;;;;;3.47;3.17;;;1.50;99.90;;;;;;5014577;28;20500;-73
2021/01/27 07:26:24;;;;;;;4.33;2.30;;;1.50;99.90;;;;;;5031366;28;20420;-74
2021/01/27 07:29:02;;;;;;;2.80;2.30;;;1.60;99.90;;;;;;5029535;28;20428;-73
2021/01/27 07:31:42;;;;;;;3.53;1.60;;;1.60;99.90;;;;;;5031392;28;20471;-74
2021/01/27 07:34:36;;;;;;;2.53;1.60;;;1.70;99.90;;;;;;5027895;28;20922;-73
2021/01/27 07:37:20;;;;;;;1.83;1.30;;;1.70;99.90;;;;;;5030899;28;20464;-73
2021/01/27 07:40:07;;;;;;;3.03;1.77;;;1.70;99.90;;;;;;5029016;28;20430;-73
2021/01/27 07:42:49;;;;;;;1.67;1.50;;;1.80;99.90;;;;;;5031154;28;20919;-73
2021/01/27 07:45:22;;;;;;;2.50;1.40;;;1.70;99.90;;;;;;5029079;28;20984;-74
2021/01/27 07:48:14;;;;;;;1.70;1.40;;;1.80;99.90;;;;;;5030889;28;20431;-71
2021/01/27 07:50:40;;;;;;;1.93;1.40;;;1.80;99.90;;;;;;5013098;28;20553;-73
2021/01/27 07:53:21;;;;;;;1.67;1.53;;;1.70;99.90;;;;;;5029653;28;20516;-74
2021/01/27 07:56:15;;;;;;;3.30;2.13;;;1.60;99.90;;;;;;5028948;28;20200;-73
2021/01/27 07:58:49;;;;;;;4.23;2.00;;;1.70;99.90;;;;;;5028084;28;20973;-73
2021/01/27 08:01:31;;;;;;;2.23;1.37;;;1.70;99.90;;;;;;5030851;28;20420;-74
2021/01/27 08:04:18;;;;;;;2.10;1.57;;;1.60;99.90;;;;;;5030771;28;20768;-73
2021/01/27 08:06:50;;;;;;;4.00;1.33;;;1.70;99.90;;;;;;5027102;28;20510;-73
2021/01/27 08:09:30;;;;;;;4.97;1.67;;;1.60;99.90;;;;;;5030619;28;20404;-73
2021/01/27 08:12:47;;;;;;;1.73;1.63;;;1.50;99.90;;;;;;5030630;28;20415;-73
2021/01/27 08:15:34;;;;;;;1.60;1.43;;;1.50;99.90;;;;;;4975959;28;20976;-71
2021/01/27 08:18:11;;;;;;;1.23;1.13;;;1.60;99.90;;;;;;5030568;28;20437;-73
2021/01/27 08:20:41;;;;;;;4.00;1.87;;;1.60;99.90;;;;;;5026075;28;20415;-74
2021/01/27 08:23:20;;;;;;;5.47;1.90;;;1.50;99.90;;;;;;5026972;28;20444;-73
2021/01/27 08:25:56;;;;;;;2.00;1.80;;;1.60;99.90;;;;;;5028927;28;20445;-74
2021/01/27 08:28:36;;;;;;;2.23;2.03;;;1.60;99.90;;;;;;5029253;28;21011;-73
2021/01/27 08:31:08;;;;;;;2.30;1.70;;;1.70;99.90;;;;;;5029143;28;20430;-74
2021/01/27 08:33:48;;;;;;;6.17;2.30;;;1.70;99.90;;;;;;5025436;28;20833;-74
2021/01/27 08:36:42;;;;;;;3.13;1.80;;;1.60;99.90;;;;;;5059749;28;20800;-74
2021/01/27 08:39:12;;;;;;;5.93;1.90;;;1.60;99.90;;;;;;5027008;28;20863;-73
2021/01/27 08:42:00;;;;;;;2.37;1.90;;;1.60;99.90;;;;;;5027079;28;20393;-72
2021/01/27 08:44:33;;;;;;;4.70;1.90;;;1.70;99.90;;;;;;5032564;28;20428;-74
2021/01/27 08:47:23;;;;;;;2.10;2.00;;;1.60;99.90;;;;;;5034321;28;20441;-73
2021/01/27 08:50:00;;;;;;;1.27;1.17;;;1.60;99.90;;;;;;5032470;28;20392;-73
2021/01/27 08:52:35;;;;;;;1.67;1.57;;;1.60;99.90;;;;;;5034493;28;20923;-74
2021/01/27 08:55:21;;;;;;;2.67;2.13;;;1.60;99.90;;;;;;5034614;28;20395;-73
2021/01/27 08:58:13;;;;;;;4.00;1.97;;;1.50;99.90;;;;;;5030503;28;20924;-73
2021/01/27 09:00:38;;;;;;;7.70;1.50;;;1.50;99.90;;;;;;5058893;28;20420;-74
2021/01/27 09:03:04;;;;;;;1.80;1.70;;;1.40;99.90;;;;;;5029968;28;20931;-72
2021/01/27 09:05:32;;;;;;;2.80;2.47;;;1.50;99.90;;;;;;5034188;28;20674;-73
2021/01/27 09:08:09;;;;;;;2.40;2.20;;;1.40;99.90;;;;;;5033927;28;20207;-73
2021/01/27 09:10:47;;;;;;;2.00;1.73;;;1.50;99.90;;;;;;5030177;28;20482;-71
2021/01/27 09:13:23;;;;;;;4.93;1.90;;;1.40;99.90;;;;;;5031299;28;20461;-73
2021/01/27 09:15:56;;;;;;;2.70;2.50;;;1.40;99.90;;;;;;5034111;28;20463;-73
2021/01/27 09:18:22;;;;;;;2.17;2.07;;;1.50;99.90;;;;;;5032504;28;20431;-73
2021/01/27 09:20:47;;;;;;;2.80;2.10;;;1.50;99.90;;;;;;5033796;28;20931;-74
2021/01/27 09:23:17;;;;;;;2.03;1.83;;;1.50;99.90;;;;;;5033942;28;20185;-72
2021/01/27 09:25:46;;;;;;;2.70;1.60;;;1.50;99.90;;;;;;5033991;28;20197;-73
2021/01/27 09:28:12;;;;;;;1.90;1.67;;;1.50;99.90;;;;;;5033503;28;20708;-75
2021/01/27 09:30:39;;;;;;;2.23;1.27;;;1.50;99.90;;;;;;5033760;28;20501;-73
2021/01/27 09:33:26;;;;;;;1.67;1.50;;;1.40;99.90;;;;;;5029694;28;20423;-73
2021/01/27 09:36:24;;;;;;;1.63;1.17;;;1.40;99.90;;;;;;5031849;28;20414;-74
2021/01/27 09:38:55;;;;;;;1.70;1.60;;;1.30;99.90;;;;;;5020019;28;20429;-75
2021/01/27 09:41:31;;;;;;;1.73;1.63;;;1.20;99.90;;;;;;5032274;28;20427;-73
2021/01/27 09:43:58;;;;;;;2.90;2.60;;;1.20;99.90;;;;;;5033280;28;20446;-75
2021/01/27 09:46:34;;;;;;;1.47;1.30;;;1.20;99.90;;;;;;5033410;28;20422;-73
2021/01/27 09:49:09;;;;;;;3.63;2.03;;;1.30;99.90;;;;;;5033220;28;20391;-73
2021/01/27 09:51:37;;;;;;;3.77;2.60;;;1.30;99.90;;;;;;5061355;28;20422;-72
2021/01/27 09:54:03;;;;;;;3.40;1.87;;;1.20;99.90;;;;;;5032634;28;20415;-72
2021/01/27 09:56:30;;;;;;;2.50;2.30;;;1.20;99.90;;;;;;5032454;28;20558;-72
2021/01/27 09:58:57;;;;;;;6.30;3.07;;;1.10;99.90;;;;;;5033024;28;20403;-73
2021/01/27 10:01:26;;;;;;;6.40;3.00;;;1.10;99.90;;;;;;5032868;28;20412;-72
2021/01/27 10:04:05;;;;;;;3.07;2.20;;;1.10;99.90;;;;;;5032222;28;20393;-73
2021/01/27 10:06:36;;;;;;;3.17;2.60;;;1.20;99.90;;;;;;5033287;28;20442;-73
2021/01/27 10:09:17;;;;;;;6.10;2.97;;;1.20;99.90;;;;;;5032699;28;20464;-73
2021/01/27 10:11:43;;;;;;;4.80;2.63;;;1.10;99.90;;;;;;5030084;28;20508;-73
2021/01/27 10:14:11;;;;;;;2.40;2.20;;;1.10;99.90;;;;;;5031601;28;20873;-72
2021/01/27 10:16:49;;;;;;;4.00;3.33;;;1.10;99.90;;;;;;5029173;28;20547;-72
2021/01/27 10:19:27;;;;;;;7.13;3.97;;;1.20;99.90;;;;;;5029827;28;20424;-72
2021/01/27 10:21:55;;;;;;;3.80;2.70;;;1.10;99.90;;;;;;5032480;28;20417;-74
2021/01/27 10:24:42;;;;;;;5.10;3.17;;;1.20;99.90;;;;;;5032562;28;20435;-73
2021/01/27 10:27:08;;;;;;;3.07;2.07;;;1.30;99.90;;;;;;5028960;28;20444;-73
2021/01/27 10:29:38;;;;;;;2.90;2.40;;;1.20;99.90;;;;;;5032741;28;20394;-72
2021/01/27 10:32:24;;;;;;;2.90;2.20;;;1.30;99.90;;;;;;5031081;28;20262;-74
2021/01/27 10:34:50;;;;;;;2.60;2.40;;;1.20;99.90;;;;;;5030605;28;20419;-73
2021/01/27 10:37:37;;;;;;;4.87;2.50;;;1.20;99.90;;;;;;5031047;28;20457;-72
2021/01/27 10:40:23;;;;;;;5.33;2.73;;;1.30;99.90;;;;;;5031249;28;20917;-73
2021/01/27 10:42:52;;;;;;;3.07;2.30;;;1.30;99.90;;;;;;5028931;28;20442;-73
2021/01/27 10:45:33;;;;;;;3.47;2.57;;;1.30;99.90;;;;;;5032142;28;20437;-73
2021/01/27 10:48:04;;;;;;;2.20;1.93;;;1.30;99.90;;;;;;5032181;28;20478;-73
2021/01/27 10:50:30;;;;;;;4.27;2.50;;;1.30;99.90;;;;;;5032280;28;20387;-73
2021/01/27 10:52:57;;;;;;;2.57;2.37;;;1.40;99.90;;;;;;5030680;28;20396;-72
2021/01/27 10:55:29;;;;;;;2.13;1.93;;;1.50;99.90;;;;;;5032082;28;20254;-72
2021/01/27 10:58:11;;;;;;;2.23;2.00;;;1.40;99.90;;;;;;5032088;28;20484;-72
2021/01/27 11:00:37;;;;;;;6.73;1.80;;;1.40;99.90;;;;;;5028352;28;20437;-73
2021/01/27 11:03:07;;;;;;;2.40;1.90;;;1.40;99.90;;;;;;5031764;28;20411;-73
2021/01/27 11:05:33;;;;;;;3.03;2.70;;;1.40;99.90;;;;;;5031863;28;20489;-73
2021/01/27 11:07:59;;;;;;;2.00;1.90;;;1.30;99.90;;;;;;5031608;28;20573;-73
2021/01/27 11:10:25;;;;;;;1.97;1.87;;;1.30;99.90;;;;;;5031859;28;20260;-72
2021/01/27 11:12:51;;;;;;;2.97;2.67;;;1.30;99.90;;;;;;5030412;28;20434;-72
2021/01/27 11:15:17;;;;;;;2.30;2.10;;;1.30;99.90;;;;;;5030270;28;20209;-73
2021/01/27 11:17:43;;;;;;;3.17;1.90;;;1.40;99.90;;;;;;5031857;28;20280;-73
2021/01/27 11:20:09;;;;;;;4.20;2.70;;;1.40;99.90;;;;;;5031698;28;20942;-73
2021/01/27 11:22:34;;;;;;;2.80;2.57;;;1.40;99.90;;;;;;5027496;28;20185;-73
2021/01/27 11:25:00;;;;;;;2.57;2.43;;;1.40;99.90;;;;;;5031463;28;20576;-72
2021/01/27 11:27:25;;;;;;;4.17;2.50;;;1.40;99.90;;;;;;5031390;28;20237;-73
2021/01/27 11:29:51;;;;;;;1.77;1.67;;;1.50;99.90;;;;;;5031544;28;20179;-74
2021/01/27 11:32:17;;;;;;;2.40;1.90;;;1.60;99.90;;;;;;5031350;28;20210;-73
2021/01/27 11:34:42;;;;;;;2.53;2.10;;;1.60;99.90;;;;;;5031850;28;20577;-73
2021/01/27 11:37:09;;;;;;;2.33;2.13;;;1.60;99.90;;;;;;5031046;28;20263;-73
2021/01/27 11:39:35;;;;;;;3.10;2.80;;;1.60;99.90;;;;;;5027373;28;20197;-73
2021/01/27 11:42:00;;;;;;;1.70;1.60;;;1.70;99.90;;;;;;5030991;28;20389;-73
2021/01/27 11:44:26;;;;;;;1.97;1.87;;;1.90;99.90;;;;;;5031016;28;20207;-74
2021/01/27 11:46:52;;;;;;;1.80;1.70;;;1.80;99.90;;;;;;5030986;28;20472;-73
2021/01/27 11:49:17;;;;;;;6.30;1.60;;;2.00;99.90;;;;;;5030940;28;20178;-73
2021/01/27 11:51:43;;;;;;;1.87;1.47;;;2.00;99.90;;;;;;5030668;28;20209;-73
2021/01/27 11:54:09;;;;;;;1.87;1.33;;;2.00;99.90;;;;;;5030117;28;20184;-71
2021/01/27 11:56:35;;;;;;;1.27;1.17;;;1.90;99.90;;;;;;5027151;28;20205;-74
2021/01/27 11:59:00;;;;;;;1.80;1.00;;;1.80;99.90;;;;;;5030561;28;20397;-73
2021/01/27 12:01:27;;;;;;;1.67;1.50;;;1.80;99.90;;;;;;5030824;28;20183;-73
2021/01/27 12:03:53;;;;;;;1.93;1.80;;;1.70;99.90;;;;;;5030393;28;20179;-73
2021/01/27 12:06:19;;;;;;;6.80;1.40;;;1.80;99.90;;;;;;5030869;28;20938;-73
2021/01/27 12:08:44;;;;;;;1.70;1.60;;;1.80;99.90;;;;;;5030789;28;20194;-72
2021/01/27 12:11:10;;;;;;;3.23;1.47;;;1.80;99.90;;;;;;5030554;28;20588;-74
2021/01/27 12:13:35;;;;;;;1.83;1.50;;;1.80;99.90;;;;;;5030860;28;20313;-73
2021/01/27 12:16:01;;;;;;;2.23;1.80;;;1.90;99.90;;;;;;5030619;28;20290;-73
2021/01/27 12:18:26;;;;;;;1.17;1.07;;;2.00;99.90;;;;;;5028789;28;20644;-73
2021/01/27 12:20:52;;;;;;;1.20;1.07;;;1.80;99.90;;;;;;5030564;28;20265;-70
2021/01/27 12:23:17;;;;;;;2.20;1.30;;;2.00;99.90;;;;;;5030732;28;20192;-73
2021/01/27 12:25:43;;;;;;;1.70;1.00;;;2.00;99.90;;;;;;5030563;28;20560;-73
2021/01/27 12:28:08;;;;;;;1.40;0.83;;;2.10;99.90;;;;;;5030444;28;20204;-73
2021/01/27 12:30:34;;;;;;;1.53;1.40;;;2.10;99.90;;;;;;5029415;28;20181;-73
2021/01/27 12:32:59;;;;;;;1.60;1.03;;;2.30;99.90;;;;;;5030444;28;20227;-74
2021/01/27 12:35:25;;;;;;;3.87;1.20;;;2.40;99.90;;;;;;5030631;28;20180;-74
2021/01/27 12:37:51;;;;;;;1.00;0.90;;;2.40;99.90;;;;;;5030439;28;20597;-73
2021/01/27 12:40:19;;;;;;;1.00;1.00;;;2.50;99.90;;;;;;5030596;28;20719;-73
2021/01/27 12:42:45;;;;;;;4.27;1.10;;;2.50;99.90;;;;;;5030240;28;20300;-73
2021/01/27 12:45:12;;;;;;;1.50;1.40;;;2.50;99.90;;;;;;5030501;28;20973;-73
2021/01/27 12:47:38;;;;;;;2.70;1.40;;;2.40;99.90;;;;;;5030424;28;20679;-73
2021/01/27 12:50:08;;;;;;;1.10;1.00;;;2.40;99.90;;;;;;5030569;28;20393;-73
2021/01/27 12:52:34;;;;;;;3.07;0.90;;;2.30;99.90;;;;;;5028916;28;20232;-73
2021/01/27 12:54:59;;;;;;;3.23;1.40;;;2.20;99.90;;;;;;5030354;28;20403;-73
2021/01/27 12:57:25;;;;;;;2.63;0.97;;;2.20;99.90;;;;;;5030437;28;20444;-74
2021/01/27 12:59:51;;;;;;;1.67;1.30;;;2.30;99.90;;;;;;5029391;28;20188;-72
2021/01/27 13:02:16;;;;;;;3.37;1.00;;;2.30;99.90;;;;;;5030212;28;20183;-74
2021/01/27 13:04:42;;;;;;;2.83;1.40;;;2.30;99.90;;;;;;5030550;28;20553;-74
2021/01/27 13:07:07;;;;;;;1.13;1.00;;;2.30;99.90;;;;;;5031116;28;20199;-72
2021/01/27 13:09:33;;;;;;;1.20;1.10;;;2.30;99.90;;;;;;5030656;28;20189;-73
2021/01/27 13:11:58;;;;;;;1.67;1.37;;;2.00;99.90;;;;;;5030135;28;20241;-72
2021/01/27 13:14:24;;;;;;;1.30;1.20;;;1.90;99.90;;;;;;5029462;28;20181;-72
2021/01/27 13:16:50;;;;;;;2.00;1.30;;;1.70;99.90;;;;;;5030377;28;20206;-73
2021/01/27 13:19:17;;;;;;;1.57;1.17;;;1.80;99.90;;;;;;5029848;28;20741;-73
2021/01/27 13:21:43;;;;;;;1.77;1.30;;;1.80;99.90;;;;;;5030211;28;20507;-73
2021/01/27 13:24:09;;;;;;;1.60;1.40;;;1.80;99.90;;;;;;5029968;28;20922;-73
2021/01/27 13:26:34;;;;;;;1.33;1.23;;;1.90;99.90;;;;;;5026201;28;20474;-73
2021/01/27 13:29:00;;;;;;;1.60;1.50;;;2.00;99.90;;;;;;5030590;28;20211;-73
2021/01/27 13:31:26;;;;;;;9.20;1.60;;;2.10;99.90;;;;;;5033705;28;20224;-73